Brisbane Airport Weather forecast (YBBN – BNE)

METAR

METAR YBBN 230130Z 07008KT 9999 VCSH FEW033 25/15 Q1016 RMK RF00.0/000.0

TAF

TAF YBBN 222321Z 2300/2406 12010KT 9999 -SHRA SCT035 FM230200 10013KT 9999 -SHRA SCT035 FM230800 14007KT 9999 SCT030 FM231400 20005KT 9999 SCT030 FM232300 12011KT 9999 SCT035 FM240200 10013KT 9999 SCT035 INTER 2300/2304 3000 SHRA BKN012 RMK T 23 24 24 22 Q 1016 1015 1014 1015

QNH 

1016

Temperature & Dew Point

25° DP15